sensor_id;sensor_type;location;lat;lon;timestamp;pressure;altitude;pressure_sealevel;temperature;humidity
76205;BME280;64986;55.672;37.628;2023-06-14T03:28:14;99766.19;;;16.46;nan
76205;BME280;64986;55.672;37.628;2023-06-14T03:30:40;99881.28;;;17.27;nan
76205;BME280;64986;55.672;37.628;2023-06-14T03:33:06;99882.19;;;17.32;nan
76205;BME280;64986;55.672;37.628;2023-06-14T03:35:31;99883.91;;;17.38;nan
76205;BME280;64986;55.672;37.628;2023-06-14T03:37:57;99885.81;;;17.43;nan
76205;BME280;64986;55.672;37.628;2023-06-14T03:40:22;99882.91;;;17.44;nan
76205;BME280;64986;55.672;37.628;2023-06-14T03:42:51;99886.72;;;17.48;nan
76205;BME280;64986;55.672;37.628;2023-06-14T03:45:17;99881.50;;;17.54;nan
76205;BME280;64986;55.672;37.628;2023-06-14T03:47:42;99879.00;;;17.64;nan
76205;BME280;64986;55.672;37.628;2023-06-14T03:50:08;99883.84;;;17.67;nan
76205;BME280;64986;55.672;37.628;2023-06-14T03:52:34;99886.88;;;17.70;nan
76205;BME280;64986;55.672;37.628;2023-06-14T03:54:59;99883.81;;;17.79;nan
76205;BME280;64986;55.672;37.628;2023-06-14T03:57:25;99888.97;;;17.85;nan
76205;BME280;64986;55.672;37.628;2023-06-14T03:59:51;99890.03;;;17.84;nan
76205;BME280;64986;55.672;37.628;2023-06-14T04:02:17;99894.44;;;17.95;nan
76205;BME280;64986;55.672;37.628;2023-06-14T04:04:44;99896.41;;;18.00;nan
76205;BME280;64986;55.672;37.628;2023-06-14T04:07:13;99879.59;;;17.99;nan
76205;BME280;64986;55.672;37.628;2023-06-14T04:09:40;99895.44;;;18.06;nan
76205;BME280;64986;55.672;37.628;2023-06-14T04:12:06;99886.44;;;18.12;nan
76205;BME280;64986;55.672;37.628;2023-06-14T04:14:34;99888.38;;;18.17;nan
76205;BME280;64986;55.672;37.628;2023-06-14T04:17:00;99889.28;;;18.22;nan
76205;BME280;64986;55.672;37.628;2023-06-14T04:19:25;99886.09;;;18.25;nan
76205;BME280;64986;55.672;37.628;2023-06-14T04:21:51;99885.38;;;18.30;nan
76205;BME280;64986;55.672;37.628;2023-06-14T04:24:16;99887.91;;;18.42;nan
76205;BME280;64986;55.672;37.628;2023-06-14T04:26:43;99886.94;;;18.48;nan
76205;BME280;64986;55.672;37.628;2023-06-14T04:29:14;99891.59;;;18.57;nan
76205;BME280;64986;55.672;37.628;2023-06-14T04:31:44;99900.00;;;18.66;nan
76205;BME280;64986;55.672;37.628;2023-06-14T04:34:10;99878.34;;;18.63;nan
76205;BME280;64986;55.672;37.628;2023-06-14T04:36:42;99885.38;;;18.69;nan
76205;BME280;64986;55.672;37.628;2023-06-14T04:39:17;99876.13;;;18.76;nan
76205;BME280;64986;55.672;37.628;2023-06-14T04:41:45;99885.13;;;18.70;nan
76205;BME280;64986;55.672;37.628;2023-06-14T04:44:12;99887.34;;;18.78;nan
76205;BME280;64986;55.672;37.628;2023-06-14T04:46:39;99885.06;;;18.87;nan
76205;BME280;64986;55.672;37.628;2023-06-14T04:49:14;99885.19;;;18.97;nan
76205;BME280;64986;55.672;37.628;2023-06-14T04:51:44;99888.94;;;19.01;nan
76205;BME280;64986;55.672;37.628;2023-06-14T04:54:10;99887.44;;;19.10;nan
76205;BME280;64986;55.672;37.628;2023-06-14T04:56:38;99880.84;;;19.18;nan
76205;BME280;64986;55.672;37.628;2023-06-14T04:59:03;99883.06;;;19.26;nan
76205;BME280;64986;55.672;37.628;2023-06-14T05:01:32;99884.72;;;19.32;nan
76205;BME280;64986;55.672;37.628;2023-06-14T05:03:59;99886.41;;;19.38;nan
76205;BME280;64986;55.672;37.628;2023-06-14T05:06:24;99880.84;;;19.45;nan
76205;BME280;64986;55.672;37.628;2023-06-14T05:08:51;99884.66;;;19.54;nan
76205;BME280;64986;55.672;37.628;2023-06-14T05:11:16;99875.69;;;19.60;nan
76205;BME280;64986;55.672;37.628;2023-06-14T05:13:42;99882.47;;;19.73;nan
76205;BME280;64986;55.672;37.628;2023-06-14T05:16:10;99882.22;;;19.80;nan
76205;BME280;64986;55.672;37.628;2023-06-14T05:18:36;99887.63;;;19.85;nan
76205;BME280;64986;55.672;37.628;2023-06-14T05:21:02;99877.53;;;19.92;nan
76205;BME280;64986;55.672;37.628;2023-06-14T05:23:29;99876.78;;;19.97;nan
76205;BME280;64986;55.672;37.628;2023-06-14T05:25:55;99877.09;;;20.05;nan
76205;BME280;64986;55.672;37.628;2023-06-14T05:28:22;99874.47;;;20.15;nan
76205;BME280;64986;55.672;37.628;2023-06-14T05:30:47;99872.91;;;20.19;nan
76205;BME280;64986;55.672;37.628;2023-06-14T05:33:13;99878.56;;;20.28;nan
76205;BME280;64986;55.672;37.628;2023-06-14T05:35:38;99871.41;;;20.39;nan
76205;BME280;64986;55.672;37.628;2023-06-14T05:38:04;99884.06;;;20.48;nan
76205;BME280;64986;55.672;37.628;2023-06-14T05:40:30;99867.22;;;20.48;nan
76205;BME280;64986;55.672;37.628;2023-06-14T05:42:56;99881.69;;;20.57;nan
76205;BME280;64986;55.672;37.628;2023-06-14T05:45:22;99869.63;;;20.55;nan
76205;BME280;64986;55.672;37.628;2023-06-14T05:47:47;99879.03;;;20.62;nan
76205;BME280;64986;55.672;37.628;2023-06-14T05:50:13;99881.19;;;20.70;nan
76205;BME280;64986;55.672;37.628;2023-06-14T05:52:39;99883.13;;;20.80;nan
76205;BME280;64986;55.672;37.628;2023-06-14T05:55:05;99887.44;;;20.91;nan
76205;BME280;64986;55.672;37.628;2023-06-14T05:57:31;99888.78;;;20.89;nan
76205;BME280;64986;55.672;37.628;2023-06-14T05:59:56;99882.88;;;20.92;nan
76205;BME280;64986;55.672;37.628;2023-06-14T06:02:22;99877.81;;;21.00;nan
76205;BME280;64986;55.672;37.628;2023-06-14T06:04:47;99884.28;;;21.10;nan
76205;BME280;64986;55.672;37.628;2023-06-14T06:07:13;99879.19;;;21.13;nan
76205;BME280;64986;55.672;37.628;2023-06-14T06:09:38;99885.38;;;21.19;nan
76205;BME280;64986;55.672;37.628;2023-06-14T06:12:06;99875.19;;;21.21;nan
76205;BME280;64986;55.672;37.628;2023-06-14T06:14:32;99885.13;;;21.25;nan
76205;BME280;64986;55.672;37.628;2023-06-14T06:16:58;99885.13;;;21.30;nan
76205;BME280;64986;55.672;37.628;2023-06-14T06:19:23;99880.06;;;21.34;nan
76205;BME280;64986;55.672;37.628;2023-06-14T06:21:49;99878.72;;;21.37;nan
76205;BME280;64986;55.672;37.628;2023-06-14T06:24:15;99884.66;;;21.39;nan
76205;BME280;64986;55.672;37.628;2023-06-14T06:26:40;99879.00;;;21.45;nan
76205;BME280;64986;55.672;37.628;2023-06-14T06:29:06;99883.56;;;21.50;nan
76205;BME280;64986;55.672;37.628;2023-06-14T06:31:32;99886.00;;;21.62;nan
76205;BME280;64986;55.672;37.628;2023-06-14T06:33:57;99885.47;;;21.70;nan
76205;BME280;64986;55.672;37.628;2023-06-14T06:36:24;99881.44;;;21.72;nan
76205;BME280;64986;55.672;37.628;2023-06-14T06:38:50;99882.50;;;21.76;nan
76205;BME280;64986;55.672;37.628;2023-06-14T06:41:15;99881.69;;;21.81;nan
76205;BME280;64986;55.672;37.628;2023-06-14T06:43:41;99871.50;;;21.83;nan
76205;BME280;64986;55.672;37.628;2023-06-14T06:46:07;99875.28;;;21.92;nan
76205;BME280;64986;55.672;37.628;2023-06-14T06:48:32;99884.38;;;22.01;nan
76205;BME280;64986;55.672;37.628;2023-06-14T06:50:58;99864.53;;;22.02;nan
76205;BME280;64986;55.672;37.628;2023-06-14T06:53:23;99871.53;;;22.08;nan
76205;BME280;64986;55.672;37.628;2023-06-14T06:55:49;99871.25;;;22.10;nan
76205;BME280;64986;55.672;37.628;2023-06-14T06:58:14;99877.66;;;22.14;nan
76205;BME280;64986;55.672;37.628;2023-06-14T07:00:40;99881.41;;;22.18;nan
76205;BME280;64986;55.672;37.628;2023-06-14T07:03:06;99878.47;;;22.20;nan
76205;BME280;64986;55.672;37.628;2023-06-14T07:05:32;99885.69;;;22.19;nan
76205;BME280;64986;55.672;37.628;2023-06-14T07:07:57;99874.44;;;22.22;nan
76205;BME280;64986;55.672;37.628;2023-06-14T07:10:23;99876.31;;;22.17;nan
76205;BME280;64986;55.672;37.628;2023-06-14T07:12:50;99878.22;;;22.16;nan
76205;BME280;64986;55.672;37.628;2023-06-14T07:15:15;99876.88;;;22.08;nan
76205;BME280;64986;55.672;37.628;2023-06-14T07:17:41;99872.03;;;22.10;nan
76205;BME280;64986;55.672;37.628;2023-06-14T07:20:08;99873.63;;;22.22;nan
76205;BME280;64986;55.672;37.628;2023-06-14T07:22:40;99865.31;;;22.23;nan
76205;BME280;64986;55.672;37.628;2023-06-14T07:25:08;99872.81;;;22.26;nan
76205;BME280;64986;55.672;37.628;2023-06-14T07:27:34;99869.03;;;22.32;nan
76205;BME280;64986;55.672;37.628;2023-06-14T07:29:59;99870.09;;;22.36;nan
76205;BME280;64986;55.672;37.628;2023-06-14T07:32:25;99870.38;;;22.35;nan
76205;BME280;64986;55.672;37.628;2023-06-14T07:34:51;99857.47;;;22.42;nan
76205;BME280;64986;55.672;37.628;2023-06-14T07:37:16;99864.44;;;22.48;nan
76205;BME280;64986;55.672;37.628;2023-06-14T07:39:42;99869.00;;;22.53;nan
76205;BME280;64986;55.672;37.628;2023-06-14T07:42:07;99875.41;;;22.52;nan
76205;BME280;64986;55.672;37.628;2023-06-14T07:44:33;99870.59;;;22.54;nan
76205;BME280;64986;55.672;37.628;2023-06-14T07:46:58;99855.03;;;22.51;nan
76205;BME280;64986;55.672;37.628;2023-06-14T07:49:25;99862.53;;;22.54;nan
76205;BME280;64986;55.672;37.628;2023-06-14T07:51:51;99851.25;;;22.57;nan
76205;BME280;64986;55.672;37.628;2023-06-14T07:54:16;99855.25;;;22.59;nan
76205;BME280;64986;55.672;37.628;2023-06-14T07:56:42;99853.13;;;22.56;nan
76205;BME280;64986;55.672;37.628;2023-06-14T07:59:08;99862.56;;;22.49;nan
76205;BME280;64986;55.672;37.628;2023-06-14T08:01:34;99859.59;;;22.50;nan
76205;BME280;64986;55.672;37.628;2023-06-14T08:03:59;99853.75;;;22.33;nan
76205;BME280;64986;55.672;37.628;2023-06-14T08:06:25;99843.88;;;22.13;nan
76205;BME280;64986;55.672;37.628;2023-06-14T08:08:51;99852.44;;;22.30;nan
76205;BME280;64986;55.672;37.628;2023-06-14T08:11:16;99859.84;;;22.54;nan
76205;BME280;64986;55.672;37.628;2023-06-14T08:13:42;99866.75;;;22.75;nan
76205;BME280;64986;55.672;37.628;2023-06-14T08:16:07;99848.72;;;22.81;nan
76205;BME280;64986;55.672;37.628;2023-06-14T08:18:33;99866.16;;;22.88;nan
76205;BME280;64986;55.672;37.628;2023-06-14T08:20:58;99860.78;;;22.93;nan
76205;BME280;64986;55.672;37.628;2023-06-14T08:23:24;99863.94;;;23.06;nan
76205;BME280;64986;55.672;37.628;2023-06-14T08:25:50;99866.53;;;23.16;nan
76205;BME280;64986;55.672;37.628;2023-06-14T08:28:15;99870.25;;;23.25;nan
76205;BME280;64986;55.672;37.628;2023-06-14T08:30:42;99868.63;;;23.29;nan
76205;BME280;64986;55.672;37.628;2023-06-14T08:33:08;99867.75;;;23.34;nan
76205;BME280;64986;55.672;37.628;2023-06-14T08:35:33;99862.88;;;23.41;nan
76205;BME280;64986;55.672;37.628;2023-06-14T08:38:02;99858.84;;;23.43;nan
76205;BME280;64986;55.672;37.628;2023-06-14T08:40:30;99860.63;;;23.53;nan
76205;BME280;64986;55.672;37.628;2023-06-14T08:42:56;99855.50;;;23.57;nan
76205;BME280;64986;55.672;37.628;2023-06-14T08:45:22;99857.09;;;23.63;nan
76205;BME280;64986;55.672;37.628;2023-06-14T08:47:48;99856.47;;;23.71;nan
76205;BME280;64986;55.672;37.628;2023-06-14T08:50:20;99859.41;;;23.74;nan
76205;BME280;64986;55.672;37.628;2023-06-14T08:52:48;99852.63;;;23.82;nan
76205;BME280;64986;55.672;37.628;2023-06-14T08:55:16;99846.16;;;23.83;nan
76205;BME280;64986;55.672;37.628;2023-06-14T08:57:43;99840.69;;;23.64;nan
76205;BME280;64986;55.672;37.628;2023-06-14T09:00:11;99841.50;;;23.60;nan
76205;BME280;64986;55.672;37.628;2023-06-14T09:02:41;99841.72;;;23.68;nan
76205;BME280;64986;55.672;37.628;2023-06-14T09:05:12;99844.03;;;23.80;nan
76205;BME280;64986;55.672;37.628;2023-06-14T09:07:43;99838.41;;;24.05;nan
76205;BME280;64986;55.672;37.628;2023-06-14T09:10:14;99840.38;;;23.95;nan
76205;BME280;64986;55.672;37.628;2023-06-14T09:12:40;99828.56;;;23.96;nan
76205;BME280;64986;55.672;37.628;2023-06-14T09:15:06;99829.75;;;24.08;nan
76205;BME280;64986;55.672;37.628;2023-06-14T09:17:34;99816.56;;;24.12;nan
76205;BME280;64986;55.672;37.628;2023-06-14T09:20:04;99833.03;;;24.05;nan
76205;BME280;64986;55.672;37.628;2023-06-14T09:22:37;99828.44;;;23.82;nan
76205;BME280;64986;55.672;37.628;2023-06-14T09:25:03;99822.94;;;23.92;nan
76205;BME280;64986;55.672;37.628;2023-06-14T09:27:29;99828.41;;;24.11;nan
76205;BME280;64986;55.672;37.628;2023-06-14T09:29:55;99818.91;;;24.43;nan
76205;BME280;64986;55.672;37.628;2023-06-14T09:32:23;99814.50;;;24.71;nan
76205;BME280;64986;55.672;37.628;2023-06-14T09:34:49;99821.22;;;24.92;nan
76205;BME280;64986;55.672;37.628;2023-06-14T09:37:35;99817.50;;;25.91;nan
76205;BME280;64986;55.672;37.628;2023-06-14T09:40:03;99815.53;;;27.46;nan
76205;BME280;64986;55.672;37.628;2023-06-14T09:42:29;99815.91;;;28.81;nan
76205;BME280;64986;55.672;37.628;2023-06-14T09:44:56;99811.09;;;30.11;nan
76205;BME280;64986;55.672;37.628;2023-06-14T09:47:23;99812.72;;;31.26;nan
76205;BME280;64986;55.672;37.628;2023-06-14T09:49:50;99811.53;;;32.42;nan
76205;BME280;64986;55.672;37.628;2023-06-14T09:52:18;99814.28;;;32.82;nan
76205;BME280;64986;55.672;37.628;2023-06-14T09:54:45;99806.28;;;33.73;nan
76205;BME280;64986;55.672;37.628;2023-06-14T09:57:12;99809.69;;;34.49;nan
76205;BME280;64986;55.672;37.628;2023-06-14T09:59:46;99797.81;;;35.38;nan
76205;BME280;64986;55.672;37.628;2023-06-14T10:02:25;99802.03;;;35.78;nan
76205;BME280;64986;55.672;37.628;2023-06-14T10:05:05;99789.56;;;36.33;nan
76205;BME280;64986;55.672;37.628;2023-06-14T10:10:14;99790.47;;;37.01;nan
76205;BME280;64986;55.672;37.628;2023-06-14T10:12:41;99785.38;;;37.37;nan
76205;BME280;64986;55.672;37.628;2023-06-14T10:15:09;99780.81;;;37.96;nan
76205;BME280;64986;55.672;37.628;2023-06-14T10:17:50;99784.22;;;38.37;nan
76205;BME280;64986;55.672;37.628;2023-06-14T10:20:40;99780.91;;;38.90;nan
76205;BME280;64986;55.672;37.628;2023-06-14T10:23:17;99779.84;;;39.16;nan
76205;BME280;64986;55.672;37.628;2023-06-14T10:25:44;99771.91;;;39.00;nan
76205;BME280;64986;55.672;37.628;2023-06-14T10:28:20;99785.78;;;39.89;nan
76205;BME280;64986;55.672;37.628;2023-06-14T10:33:33;99775.94;;;39.95;nan
76205;BME280;64986;55.672;37.628;2023-06-14T10:39:00;99773.19;;;41.12;nan
76205;BME280;64986;55.672;37.628;2023-06-14T10:41:29;99754.69;;;41.05;nan
76205;BME280;64986;55.672;37.628;2023-06-14T10:46:48;99761.44;;;43.54;nan
76205;BME280;64986;55.672;37.628;2023-06-14T10:49:18;99760.56;;;42.76;nan
76205;BME280;64986;55.672;37.628;2023-06-14T10:51:45;99756.22;;;42.06;nan
76205;BME280;64986;55.672;37.628;2023-06-14T10:54:14;99751.47;;;42.75;nan
76205;BME280;64986;55.672;37.628;2023-06-14T10:57:00;99763.81;;;43.98;nan
76205;BME280;64986;55.672;37.628;2023-06-14T10:59:25;99753.16;;;43.73;nan
76205;BME280;64986;55.672;37.628;2023-06-14T11:04:41;99737.28;;;43.74;nan
76205;BME280;64986;55.672;37.628;2023-06-14T11:10:26;99742.41;;;42.75;nan
76205;BME280;64986;55.672;37.628;2023-06-14T11:12:55;99751.22;;;44.73;nan
76205;BME280;64986;55.672;37.628;2023-06-14T11:15:28;99746.91;;;44.33;nan
76205;BME280;64986;55.672;37.628;2023-06-14T11:17:54;99745.25;;;44.75;nan
76205;BME280;64986;55.672;37.628;2023-06-14T11:20:25;99745.28;;;44.91;nan
76205;BME280;64986;55.672;37.628;2023-06-14T11:22:52;99737.91;;;45.01;nan
76205;BME280;64986;55.672;37.628;2023-06-14T11:25:18;99730.09;;;44.00;nan
76205;BME280;64986;55.672;37.628;2023-06-14T11:27:44;99735.06;;;44.48;nan
76205;BME280;64986;55.672;37.628;2023-06-14T11:30:11;99737.03;;;45.04;nan
76205;BME280;64986;55.672;37.628;2023-06-14T11:32:37;99736.75;;;45.80;nan
76205;BME280;64986;55.672;37.628;2023-06-14T11:35:04;99728.28;;;46.41;nan
76205;BME280;64986;55.672;37.628;2023-06-14T11:37:30;99732.03;;;46.89;nan
76205;BME280;64986;55.672;37.628;2023-06-14T11:39:58;99726.16;;;47.47;nan
76205;BME280;64986;55.672;37.628;2023-06-14T11:42:26;99728.28;;;47.78;nan
76205;BME280;64986;55.672;37.628;2023-06-14T11:44:53;99723.78;;;47.93;nan
76205;BME280;64986;55.672;37.628;2023-06-14T11:47:19;99714.78;;;47.76;nan
76205;BME280;64986;55.672;37.628;2023-06-14T11:49:44;99704.59;;;48.57;nan
76205;BME280;64986;55.672;37.628;2023-06-14T11:52:12;99712.22;;;47.47;nan
76205;BME280;64986;55.672;37.628;2023-06-14T11:54:38;99705.72;;;47.85;nan
76205;BME280;64986;55.672;37.628;2023-06-14T11:57:06;99712.28;;;47.09;nan
76205;BME280;64986;55.672;37.628;2023-06-14T11:59:38;99717.00;;;48.25;nan
76205;BME280;64986;55.672;37.628;2023-06-14T12:02:07;99710.44;;;48.41;nan
76205;BME280;64986;55.672;37.628;2023-06-14T12:04:33;99708.31;;;48.95;nan
76205;BME280;64986;55.672;37.628;2023-06-14T12:07:14;99705.81;;;48.97;nan
76205;BME280;64986;55.672;37.628;2023-06-14T12:12:25;99701.06;;;47.91;nan
76205;BME280;64986;55.672;37.628;2023-06-14T12:14:51;99686.41;;;48.22;nan
76205;BME280;64986;55.672;37.628;2023-06-14T12:17:17;99697.72;;;48.89;nan
76205;BME280;64986;55.672;37.628;2023-06-14T12:19:44;99681.97;;;48.64;nan
76205;BME280;64986;55.672;37.628;2023-06-14T12:22:11;99689.13;;;49.06;nan
76205;BME280;64986;55.672;37.628;2023-06-14T12:24:37;99688.66;;;49.35;nan
76205;BME280;64986;55.672;37.628;2023-06-14T12:27:03;99676.53;;;49.65;nan
76205;BME280;64986;55.672;37.628;2023-06-14T12:29:30;99680.28;;;49.71;nan
76205;BME280;64986;55.672;37.628;2023-06-14T12:31:55;99678.56;;;49.28;nan
76205;BME280;64986;55.672;37.628;2023-06-14T12:34:25;99682.31;;;49.71;nan
76205;BME280;64986;55.672;37.628;2023-06-14T12:36:55;99680.41;;;49.95;nan
76205;BME280;64986;55.672;37.628;2023-06-14T12:39:21;99675.88;;;50.16;nan
76205;BME280;64986;55.672;37.628;2023-06-14T12:41:47;99671.41;;;49.91;nan
76205;BME280;64986;55.672;37.628;2023-06-14T12:44:14;99675.25;;;50.03;nan
76205;BME280;64986;55.672;37.628;2023-06-14T12:46:41;99667.84;;;49.63;nan
76205;BME280;64986;55.672;37.628;2023-06-14T12:49:08;99663.41;;;50.17;nan
76205;BME280;64986;55.672;37.628;2023-06-14T12:51:34;99656.31;;;50.40;nan
76205;BME280;64986;55.672;37.628;2023-06-14T12:54:00;99662.00;;;50.64;nan
76205;BME280;64986;55.672;37.628;2023-06-14T12:56:25;99663.94;;;50.82;nan
76205;BME280;64986;55.672;37.628;2023-06-14T12:58:51;99673.19;;;51.21;nan
76205;BME280;64986;55.672;37.628;2023-06-14T13:01:17;99671.41;;;51.33;nan
76205;BME280;64986;55.672;37.628;2023-06-14T13:03:43;99658.47;;;50.88;nan
76205;BME280;64986;55.672;37.628;2023-06-14T13:06:08;99660.44;;;51.20;nan
76205;BME280;64986;55.672;37.628;2023-06-14T13:08:34;99652.69;;;51.69;nan
76205;BME280;64986;55.672;37.628;2023-06-14T13:10:59;99656.34;;;51.45;nan
76205;BME280;64986;55.672;37.628;2023-06-14T13:13:25;99649.91;;;51.30;nan
76205;BME280;64986;55.672;37.628;2023-06-14T13:15:51;99653.84;;;50.75;nan
76205;BME280;64986;55.672;37.628;2023-06-14T13:18:16;99644.00;;;51.04;nan
76205;BME280;64986;55.672;37.628;2023-06-14T13:20:42;99652.44;;;50.71;nan
76205;BME280;64986;55.672;37.628;2023-06-14T13:23:09;99645.53;;;50.57;nan
76205;BME280;64986;55.672;37.628;2023-06-14T13:25:36;99653.06;;;50.99;nan
76205;BME280;64986;55.672;37.628;2023-06-14T13:28:02;99643.72;;;51.26;nan
76205;BME280;64986;55.672;37.628;2023-06-14T13:30:27;99641.00;;;51.07;nan
76205;BME280;64986;55.672;37.628;2023-06-14T13:32:53;99641.81;;;51.47;nan
76205;BME280;64986;55.672;37.628;2023-06-14T13:35:19;99645.06;;;51.84;nan
76205;BME280;64986;55.672;37.628;2023-06-14T13:37:45;99646.66;;;51.46;nan
76205;BME280;64986;55.672;37.628;2023-06-14T13:40:11;99646.78;;;51.67;nan
76205;BME280;64986;55.672;37.628;2023-06-14T13:42:37;99646.28;;;51.68;nan
76205;BME280;64986;55.672;37.628;2023-06-14T13:45:04;99637.09;;;51.14;nan
76205;BME280;64986;55.672;37.628;2023-06-14T13:47:32;99627.81;;;51.23;nan
76205;BME280;64986;55.672;37.628;2023-06-14T13:49:57;99630.56;;;51.32;nan
76205;BME280;64986;55.672;37.628;2023-06-14T13:52:23;99631.41;;;51.92;nan
76205;BME280;64986;55.672;37.628;2023-06-14T13:54:49;99628.66;;;51.53;nan
76205;BME280;64986;55.672;37.628;2023-06-14T13:57:16;99624.56;;;51.39;nan
76205;BME280;64986;55.672;37.628;2023-06-14T13:59:41;99630.09;;;50.62;nan
76205;BME280;64986;55.672;37.628;2023-06-14T14:02:09;99633.84;;;50.16;nan
76205;BME280;64986;55.672;37.628;2023-06-14T14:04:35;99638.16;;;50.36;nan
76205;BME280;64986;55.672;37.628;2023-06-14T14:07:02;99636.47;;;50.62;nan
76205;BME280;64986;55.672;37.628;2023-06-14T14:09:27;99634.91;;;50.94;nan
76205;BME280;64986;55.672;37.628;2023-06-14T14:11:53;99623.59;;;51.27;nan
76205;BME280;64986;55.672;37.628;2023-06-14T14:14:18;99617.81;;;50.26;nan
76205;BME280;64986;55.672;37.628;2023-06-14T14:16:44;99620.97;;;50.01;nan
76205;BME280;64986;55.672;37.628;2023-06-14T14:19:09;99625.53;;;49.70;nan
76205;BME280;64986;55.672;37.628;2023-06-14T14:21:35;99623.47;;;49.98;nan
76205;BME280;64986;55.672;37.628;2023-06-14T14:24:01;99619.75;;;49.92;nan
76205;BME280;64986;55.672;37.628;2023-06-14T14:26:26;99616.78;;;50.47;nan
76205;BME280;64986;55.672;37.628;2023-06-14T14:28:52;99617.81;;;50.83;nan
76205;BME280;64986;55.672;37.628;2023-06-14T14:31:18;99622.34;;;50.57;nan
76205;BME280;64986;55.672;37.628;2023-06-14T14:33:44;99623.88;;;50.58;nan
76205;BME280;64986;55.672;37.628;2023-06-14T14:36:09;99620.13;;;50.61;nan
76205;BME280;64986;55.672;37.628;2023-06-14T14:38:35;99617.19;;;50.55;nan
76205;BME280;64986;55.672;37.628;2023-06-14T14:41:00;99614.72;;;50.15;nan
76205;BME280;64986;55.672;37.628;2023-06-14T14:43:26;99612.28;;;49.98;nan
76205;BME280;64986;55.672;37.628;2023-06-14T14:45:52;99622.50;;;50.20;nan
76205;BME280;64986;55.672;37.628;2023-06-14T14:48:17;99629.38;;;50.10;nan
76205;BME280;64986;55.672;37.628;2023-06-14T14:50:43;99627.66;;;50.12;nan
76205;BME280;64986;55.672;37.628;2023-06-14T14:53:09;99622.75;;;50.31;nan
76205;BME280;64986;55.672;37.628;2023-06-14T14:55:34;99622.59;;;50.35;nan
76205;BME280;64986;55.672;37.628;2023-06-14T14:58:02;99626.56;;;50.01;nan
76205;BME280;64986;55.672;37.628;2023-06-14T15:00:28;99622.91;;;49.03;nan
76205;BME280;64986;55.672;37.628;2023-06-14T15:02:54;99616.50;;;48.84;nan
76205;BME280;64986;55.672;37.628;2023-06-14T15:05:19;99620.91;;;49.03;nan
76205;BME280;64986;55.672;37.628;2023-06-14T15:07:45;99611.22;;;48.95;nan
76205;BME280;64986;55.672;37.628;2023-06-14T15:10:11;99620.75;;;49.16;nan
76205;BME280;64986;55.672;37.628;2023-06-14T15:12:36;99628.91;;;48.74;nan
76205;BME280;64986;55.672;37.628;2023-06-14T15:15:03;99626.72;;;48.69;nan
76205;BME280;64986;55.672;37.628;2023-06-14T15:17:28;99625.50;;;48.88;nan
76205;BME280;64986;55.672;37.628;2023-06-14T15:19:54;99629.84;;;48.71;nan
76205;BME280;64986;55.672;37.628;2023-06-14T15:22:20;99619.97;;;48.57;nan
76205;BME280;64986;55.672;37.628;2023-06-14T15:24:45;99626.66;;;48.59;nan
76205;BME280;64986;55.672;37.628;2023-06-14T15:27:13;99630.06;;;48.54;nan
76205;BME280;64986;55.672;37.628;2023-06-14T15:29:41;99632.78;;;48.36;nan
76205;BME280;64986;55.672;37.628;2023-06-14T15:32:07;99624.91;;;48.13;nan
76205;BME280;64986;55.672;37.628;2023-06-14T15:34:33;99632.09;;;47.70;nan
76205;BME280;64986;55.672;37.628;2023-06-14T15:36:58;99625.56;;;47.64;nan
76205;BME280;64986;55.672;37.628;2023-06-14T15:39:24;99626.44;;;48.04;nan
76205;BME280;64986;55.672;37.628;2023-06-14T15:41:50;99622.09;;;47.60;nan
76205;BME280;64986;55.672;37.628;2023-06-14T15:44:18;99612.22;;;47.24;nan
76205;BME280;64986;55.672;37.628;2023-06-14T15:46:44;99614.16;;;47.02;nan
76205;BME280;64986;55.672;37.628;2023-06-14T15:49:10;99623.31;;;46.77;nan
76205;BME280;64986;55.672;37.628;2023-06-14T15:51:36;99626.00;;;46.55;nan
76205;BME280;64986;55.672;37.628;2023-06-14T15:54:02;99632.00;;;46.15;nan
76205;BME280;64986;55.672;37.628;2023-06-14T15:56:27;99629.63;;;46.01;nan
76205;BME280;64986;55.672;37.628;2023-06-14T15:58:53;99621.16;;;46.04;nan
76205;BME280;64986;55.672;37.628;2023-06-14T16:01:18;99622.69;;;45.92;nan
76205;BME280;64986;55.672;37.628;2023-06-14T16:03:44;99628.09;;;45.71;nan
76205;BME280;64986;55.672;37.628;2023-06-14T16:06:10;99622.72;;;45.34;nan
76205;BME280;64986;55.672;37.628;2023-06-14T16:08:35;99627.16;;;45.16;nan
76205;BME280;64986;55.672;37.628;2023-06-14T16:11:01;99619.72;;;44.96;nan
76205;BME280;64986;55.672;37.628;2023-06-14T16:13:26;99619.78;;;44.60;nan
76205;BME280;64986;55.672;37.628;2023-06-14T16:15:52;99626.81;;;44.28;nan
76205;BME280;64986;55.672;37.628;2023-06-14T16:18:17;99627.69;;;44.25;nan
76205;BME280;64986;55.672;37.628;2023-06-14T16:20:43;99625.63;;;43.90;nan
76205;BME280;64986;55.672;37.628;2023-06-14T16:23:08;99616.66;;;43.42;nan
76205;BME280;64986;55.672;37.628;2023-06-14T16:25:34;99622.13;;;43.22;nan
76205;BME280;64986;55.672;37.628;2023-06-14T16:27:59;99630.41;;;42.76;nan
76205;BME280;64986;55.672;37.628;2023-06-14T16:30:25;99627.25;;;42.20;nan
76205;BME280;64986;55.672;37.628;2023-06-14T16:32:50;99638.72;;;41.84;nan
76205;BME280;64986;55.672;37.628;2023-06-14T16:35:16;99628.00;;;41.52;nan
76205;BME280;64986;55.672;37.628;2023-06-14T16:37:41;99636.72;;;41.02;nan
76205;BME280;64986;55.672;37.628;2023-06-14T16:40:07;99638.50;;;40.74;nan
76205;BME280;64986;55.672;37.628;2023-06-14T16:42:33;99634.34;;;40.38;nan
76205;BME280;64986;55.672;37.628;2023-06-14T16:44:59;99641.59;;;40.03;nan
76205;BME280;64986;55.672;37.628;2023-06-14T16:47:26;99646.81;;;39.44;nan
76205;BME280;64986;55.672;37.628;2023-06-14T16:49:51;99648.00;;;39.11;nan
76205;BME280;64986;55.672;37.628;2023-06-14T16:52:17;99649.56;;;38.98;nan
76205;BME280;64986;55.672;37.628;2023-06-14T16:54:42;99646.38;;;38.64;nan